Doyline, Louisiana
Current Conditions -  °F | °C
As of 11:57 AM on Monday 24 Nov 2014 (Local Time) from KMNE Reporting Station
Clear Clear  
Wind Chill: 61°   Ceiling: Unl
Heat Index: 61°   Visibility: 10mi
Dew Point: 30°   Wind: 14mph
Humidity: 31%   Direction: 310°NW
Pressure: 30"   Gusts: 21mph
Location:  32.54°N, 93.41°W
Report Text: KMNE 241757Z AUTO 31012G18KT 10SM CLR 16/M01 A3000 RMK AO2
Loading
Personal Weather Stations






























Interactive Weather Map New forecast layout! Learn more

10-Day Weather Forecast

Advertisements
Track Severe Weather on mobile